Time;durP1;ratioP1;P1;durP2;ratioP2;P2;SDS_P1;SDS_P2;PMS_P1;PMS_P2;Temp;Humidity;BMP_temperature;BMP_pressure;BME280_temperature;BME280_humidity;BME280_pressure;Samples;Min_cycle;Max_cycle;Signal;HPM_P1;HPM_P2
2022/03/24 00:01:47;;;;;;;29.50;17.67;;;5.00;99.50;;;;;;5051778;28;20188;-75
2022/03/24 00:04:12;;;;;;;27.40;16.77;;;5.00;99.70;;;;;;5053665;28;20053;-75
2022/03/24 00:06:38;;;;;;;26.27;17.60;;;4.90;99.70;;;;;;5051067;28;20398;-74
2022/03/24 00:09:04;;;;;;;27.42;16.02;;;4.80;99.80;;;;;;5051814;28;20036;-74
2022/03/24 00:11:30;;;;;;;29.02;18.13;;;4.80;99.90;;;;;;5051072;28;20074;-74
2022/03/24 00:13:56;;;;;;;28.38;16.40;;;4.70;99.90;;;;;;5051689;28;20037;-74
2022/03/24 00:16:22;;;;;;;29.38;16.65;;;4.70;99.90;;;;;;5051595;28;20079;-72
2022/03/24 00:18:48;;;;;;;29.15;16.95;;;4.60;99.90;;;;;;5051326;28;20033;-73
2022/03/24 00:21:16;;;;;;;27.40;16.25;;;4.50;99.90;;;;;;5051596;28;20049;-73
2022/03/24 00:23:42;;;;;;;30.95;17.88;;;4.50;99.90;;;;;;5050871;28;20056;-74
2022/03/24 00:26:08;;;;;;;33.10;18.20;;;4.50;99.90;;;;;;5051616;28;20033;-75
2022/03/24 00:28:33;;;;;;;39.35;19.20;;;4.50;99.90;;;;;;5050865;28;20035;-73
2022/03/24 00:30:59;;;;;;;31.25;17.55;;;4.50;99.90;;;;;;5051589;28;20040;-74
2022/03/24 00:33:25;;;;;;;29.38;17.23;;;4.50;99.90;;;;;;5050746;28;20053;-70
2022/03/24 00:35:51;;;;;;;30.58;17.38;;;4.50;99.90;;;;;;5051338;28;20510;-73
2022/03/24 00:38:17;;;;;;;29.23;16.52;;;4.40;99.90;;;;;;5051414;28;20029;-73
2022/03/24 00:40:43;;;;;;;28.45;17.33;;;4.40;99.90;;;;;;5050785;28;20037;-74
2022/03/24 00:43:12;;;;;;;28.73;17.15;;;4.30;99.90;;;;;;5050136;28;20029;-74
2022/03/24 00:45:41;;;;;;;28.77;17.25;;;4.20;99.90;;;;;;5031699;28;20036;-74
2022/03/24 00:48:08;;;;;;;29.70;17.20;;;4.10;99.90;;;;;;5031240;28;20029;-75
2022/03/24 00:50:35;;;;;;;30.40;18.52;;;4.10;99.90;;;;;;5034802;28;20049;-76
2022/03/24 00:53:01;;;;;;;31.92;18.02;;;4.00;99.90;;;;;;5035626;28;20025;-76
2022/03/24 00:55:27;;;;;;;31.33;17.20;;;4.10;99.90;;;;;;5034664;28;20039;-71
2022/03/24 00:57:53;;;;;;;30.08;18.02;;;4.00;99.90;;;;;;5035251;28;20038;-74
2022/03/24 01:00:20;;;;;;;27.92;17.10;;;4.00;99.90;;;;;;5035225;28;20041;-75
2022/03/24 01:02:48;;;;;;;30.77;18.33;;;4.00;99.90;;;;;;5033304;28;20871;-74
2022/03/24 01:05:16;;;;;;;31.45;17.98;;;3.90;99.90;;;;;;5035221;28;20087;-74
2022/03/24 01:07:42;;;;;;;29.38;17.35;;;3.90;99.90;;;;;;5034166;28;20455;-74
2022/03/24 01:10:10;;;;;;;33.00;18.13;;;3.80;99.90;;;;;;5034817;28;20410;-74
2022/03/24 01:12:36;;;;;;;34.13;19.33;;;3.80;99.90;;;;;;5034174;28;20030;-74
2022/03/24 01:15:04;;;;;;;31.70;18.80;;;3.80;99.90;;;;;;5034810;28;20387;-73
2022/03/24 01:17:31;;;;;;;32.42;17.55;;;3.80;99.90;;;;;;5033768;28;20036;-72
2022/03/24 01:19:57;;;;;;;33.13;18.20;;;3.80;99.90;;;;;;5034603;28;20436;-73
2022/03/24 01:22:23;;;;;;;30.58;18.83;;;3.70;99.90;;;;;;5034967;28;20033;-73
2022/03/24 01:24:49;;;;;;;34.08;18.83;;;3.70;99.90;;;;;;5034352;28;20026;-74
2022/03/24 01:27:15;;;;;;;32.92;18.17;;;3.60;99.90;;;;;;5034886;28;20017;-73
2022/03/24 01:29:41;;;;;;;33.80;18.10;;;3.70;99.90;;;;;;5033674;28;20095;-73
2022/03/24 01:32:07;;;;;;;28.50;17.45;;;3.70;99.90;;;;;;5034867;28;20033;-73
2022/03/24 01:34:34;;;;;;;28.13;17.50;;;3.60;99.90;;;;;;5033557;28;20622;-74
2022/03/24 01:37:00;;;;;;;27.50;17.65;;;3.60;99.90;;;;;;5034458;28;20387;-74
2022/03/24 01:39:26;;;;;;;28.55;17.02;;;3.50;99.90;;;;;;5034102;28;20033;-71
2022/03/24 01:41:52;;;;;;;27.30;16.67;;;3.50;99.90;;;;;;5034468;28;20037;-74
2022/03/24 01:44:19;;;;;;;36.65;19.70;;;3.40;99.90;;;;;;5034329;28;20034;-74
2022/03/24 01:47:01;;;;;;;31.13;18.58;;;3.40;99.90;;;;;;5033567;28;20632;-75
2022/03/24 01:49:28;;;;;;;28.70;17.77;;;3.40;99.90;;;;;;5033984;28;20068;-71
2022/03/24 01:51:55;;;;;;;33.88;19.15;;;3.40;99.90;;;;;;5034890;28;20030;-75
2022/03/24 01:54:27;;;;;;;31.08;18.42;;;3.40;99.90;;;;;;5034442;28;20018;-75
2022/03/24 01:56:53;;;;;;;33.33;17.95;;;3.40;99.90;;;;;;5034686;28;20035;-75
2022/03/24 01:59:19;;;;;;;30.90;18.15;;;3.30;99.90;;;;;;5032605;28;20030;-73
2022/03/24 02:01:46;;;;;;;33.35;19.13;;;3.30;99.90;;;;;;5033402;28;20243;-74
2022/03/24 02:04:14;;;;;;;33.45;18.45;;;3.30;99.90;;;;;;5034404;28;20033;-75
2022/03/24 02:06:40;;;;;;;29.52;18.08;;;3.30;99.90;;;;;;5033358;28;20479;-74
2022/03/24 02:09:07;;;;;;;31.95;17.70;;;3.30;99.90;;;;;;5032300;28;20030;-74
2022/03/24 02:11:34;;;;;;;31.13;18.92;;;3.30;99.90;;;;;;5032422;28;20375;-74
2022/03/24 02:14:00;;;;;;;32.17;18.67;;;3.30;99.90;;;;;;5033834;28;20064;-74
2022/03/24 02:16:34;;;;;;;32.50;18.30;;;3.30;99.90;;;;;;5033645;28;20091;-71
2022/03/24 02:19:18;;;;;;;31.55;18.27;;;3.40;99.90;;;;;;5033552;28;20586;-74
2022/03/24 02:21:47;;;;;;;29.30;17.35;;;3.30;99.90;;;;;;5033179;28;20034;-74
2022/03/24 02:24:15;;;;;;;29.45;17.00;;;3.30;99.90;;;;;;5033652;28;20495;-75
2022/03/24 02:26:42;;;;;;;30.38;17.90;;;3.20;99.90;;;;;;5032732;28;20441;-74
2022/03/24 02:29:10;;;;;;;29.58;16.20;;;3.30;99.90;;;;;;5033086;28;20034;-73
2022/03/24 02:31:47;;;;;;;33.72;19.05;;;3.10;99.90;;;;;;5033160;28;20084;-74
2022/03/24 02:37:00;;;;;;;29.95;17.00;;;3.10;99.90;;;;;;5033598;28;20041;-74
2022/03/24 02:39:26;;;;;;;30.55;18.30;;;3.20;99.90;;;;;;5033554;28;20103;-74
2022/03/24 02:41:57;;;;;;;31.13;18.35;;;2.90;99.90;;;;;;5032865;28;20057;-73
2022/03/24 02:44:32;;;;;;;35.42;18.48;;;2.80;99.90;;;;;;5040176;28;20020;-73
2022/03/24 02:47:02;;;;;;;37.50;19.83;;;2.80;99.90;;;;;;5053368;28;20094;-73
2022/03/24 02:49:30;;;;;;;31.77;19.17;;;2.80;99.90;;;;;;5052692;28;20422;-70
2022/03/24 02:51:58;;;;;;;33.63;19.13;;;2.80;99.90;;;;;;5053019;28;20445;-74
2022/03/24 02:54:25;;;;;;;32.85;18.95;;;2.90;99.90;;;;;;5053079;28;20025;-74
2022/03/24 02:56:51;;;;;;;33.45;18.77;;;3.00;99.90;;;;;;5052273;28;20766;-75
2022/03/24 02:59:17;;;;;;;36.47;20.40;;;3.00;99.90;;;;;;5053010;28;20029;-74
2022/03/24 03:02:07;;;;;;;34.47;17.88;;;3.00;99.90;;;;;;5051954;28;20025;-75
2022/03/24 03:04:34;;;;;;;28.02;16.20;;;3.00;99.90;;;;;;5052700;28;20074;-74
2022/03/24 03:07:02;;;;;;;31.83;17.05;;;2.90;99.90;;;;;;5053012;28;20033;-75
2022/03/24 03:09:30;;;;;;;31.33;17.55;;;2.90;99.90;;;;;;5052881;28;20064;-71
2022/03/24 03:11:58;;;;;;;30.27;16.80;;;2.80;99.90;;;;;;5052504;28;20090;-73
2022/03/24 03:14:25;;;;;;;31.00;18.13;;;2.80;99.90;;;;;;5052764;28;20029;-74
2022/03/24 03:16:50;;;;;;;32.00;17.70;;;2.80;99.90;;;;;;5051967;28;20208;-74
2022/03/24 03:19:19;;;;;;;30.17;18.60;;;2.80;99.90;;;;;;5052291;28;20117;-74
2022/03/24 03:21:47;;;;;;;29.77;17.35;;;2.80;99.90;;;;;;5051812;28;20033;-74
2022/03/24 03:24:12;;;;;;;31.88;18.15;;;2.70;99.90;;;;;;5051162;28;20036;-74
2022/03/24 03:26:39;;;;;;;28.90;17.20;;;2.70;99.90;;;;;;5051709;28;20117;-75
2022/03/24 03:29:06;;;;;;;28.80;17.05;;;2.70;99.90;;;;;;5052759;28;20470;-73
2022/03/24 03:31:34;;;;;;;29.38;16.77;;;2.60;99.90;;;;;;5051527;28;20028;-73
2022/03/24 03:34:00;;;;;;;28.55;17.35;;;2.50;99.90;;;;;;5051026;28;20029;-74
2022/03/24 03:36:25;;;;;;;31.23;18.88;;;2.40;99.90;;;;;;5051193;28;20025;-75
2022/03/24 03:38:51;;;;;;;34.45;18.08;;;2.40;99.90;;;;;;5051603;28;20860;-75
2022/03/24 03:41:20;;;;;;;31.38;18.73;;;2.50;99.90;;;;;;5052332;28;20234;-74
2022/03/24 03:43:47;;;;;;;28.92;16.85;;;2.30;99.90;;;;;;5049563;28;20108;-74
2022/03/24 03:46:13;;;;;;;33.50;18.70;;;2.30;99.90;;;;;;5031900;28;20025;-75
2022/03/24 03:48:40;;;;;;;35.15;19.80;;;;;;;;;;5031328;28;20490;-74
2022/03/24 03:51:06;;;;;;;38.22;20.13;;;;;;;;;;5032399;28;20022;-75
2022/03/24 03:53:33;;;;;;;34.80;19.63;;;;;;;;;;5031644;28;20056;-71
2022/03/24 03:55:59;;;;;;;31.45;18.38;;;;;;;;;;5032067;28;20033;-74
2022/03/24 03:58:25;;;;;;;36.92;19.10;;;;;;;;;;5032007;28;20146;-75
2022/03/24 04:00:57;;;;;;;29.70;17.80;;;;;;;;;;5029832;28;20032;-74
2022/03/24 04:03:28;;;;;;;27.77;17.15;;;;;;;;;;5031729;28;20053;-74
2022/03/24 04:05:55;;;;;;;34.58;20.63;;;;;;;;;;5031286;28;20079;-73
2022/03/24 04:08:21;;;;;;;33.67;19.55;;;;;;;;;;5031738;28;20052;-74
2022/03/24 04:10:52;;;;;;;35.45;20.13;;;;;;;;;;5031315;28;20030;-75
2022/03/24 04:13:19;;;;;;;33.38;18.92;;;;;;;;;;5032002;28;20053;-74
2022/03/24 04:15:46;;;;;;;34.75;19.65;;;;;;;;;;5032992;28;20029;-72
2022/03/24 04:18:12;;;;;;;32.80;19.08;;;;;;;;;;5040652;28;20192;-72
2022/03/24 04:20:39;;;;;;;33.65;19.00;;;;;;;;;;5042314;28;20108;-73
2022/03/24 04:23:05;;;;;;;36.25;19.83;;;;;;;;;;5040692;28;20343;-73
2022/03/24 04:25:32;;;;;;;32.80;19.02;;;;;;;;;;5041040;28;20022;-71
2022/03/24 04:27:58;;;;;;;32.25;17.83;;;;;;;;;;5038750;28;20026;-74
2022/03/24 04:30:28;;;;;;;33.22;18.60;;;;;;;;;;5041137;28;20021;-73
2022/03/24 04:32:54;;;;;;;31.35;18.80;;;;;;;;;;5040359;28;20171;-73
2022/03/24 04:35:20;;;;;;;38.42;17.85;;;;;;;;;;5039361;28;20048;-73
2022/03/24 04:37:47;;;;;;;34.28;19.27;;;;;;;;;;5038197;28;20021;-73
2022/03/24 04:40:16;;;;;;;29.17;17.00;;;;;;;;;;5041228;28;20524;-73
2022/03/24 04:42:43;;;;;;;34.13;17.98;;;;;;;;;;5031385;28;20021;-74
2022/03/24 04:45:09;;;;;;;31.48;17.20;;;;;;;;;;5043056;28;20355;-74
2022/03/24 04:47:35;;;;;;;32.13;19.17;;;;;;;;;;5050589;28;20032;-73
2022/03/24 04:50:02;;;;;;;37.65;21.02;;;;;;;;;;5050977;28;20049;-74
2022/03/24 04:52:28;;;;;;;34.90;19.63;;;;;;;;;;5051397;28;20053;-74
2022/03/24 04:54:54;;;;;;;29.98;17.70;;;;;;;;;;5050399;28;20025;-74
2022/03/24 04:57:20;;;;;;;30.83;18.10;;;;;;;;;;5051135;28;20537;-74
2022/03/24 04:59:46;;;;;;;28.83;16.55;;;;;;;;;;5050633;28;20026;-74
2022/03/24 05:02:15;;;;;;;38.72;18.73;;;;;;;;;;5050646;28;20352;-73
2022/03/24 05:04:42;;;;;;;33.85;19.80;;;;;;;;;;5050474;28;20485;-73
2022/03/24 05:07:11;;;;;;;35.35;18.08;;;;;;;;;;5050955;28;20021;-73
2022/03/24 05:09:38;;;;;;;32.00;18.03;;;;;;;;;;5052382;28;20021;-74
2022/03/24 05:12:04;;;;;;;33.47;18.58;;;;;;;;;;5050972;28;20335;-74
2022/03/24 05:14:31;;;;;;;32.33;18.50;;;2.00;99.90;;;;;;5050875;28;20351;-71
2022/03/24 05:17:01;;;;;;;33.88;18.70;;;1.90;99.90;;;;;;5049530;28;20028;-74
2022/03/24 05:19:27;;;;;;;39.42;20.20;;;1.90;99.90;;;;;;5050625;28;20490;-75
2022/03/24 05:21:53;;;;;;;32.50;18.52;;;1.80;99.90;;;;;;5050459;28;20099;-73
2022/03/24 05:24:18;;;;;;;41.83;20.98;;;1.80;99.90;;;;;;5051136;28;20029;-74
2022/03/24 05:26:45;;;;;;;34.30;19.38;;;1.80;99.90;;;;;;5050668;28;20029;-74
2022/03/24 05:29:11;;;;;;;40.35;21.13;;;1.80;99.90;;;;;;5050927;28;20032;-75
2022/03/24 05:31:37;;;;;;;38.05;21.30;;;1.80;99.90;;;;;;5050395;28;20025;-72
2022/03/24 05:34:03;;;;;;;41.28;22.00;;;1.80;99.90;;;;;;5051807;28;20092;-74
2022/03/24 05:36:29;;;;;;;38.35;20.40;;;1.80;99.90;;;;;;5054602;28;20032;-74
2022/03/24 05:38:56;;;;;;;35.88;21.58;;;1.90;99.90;;;;;;5053651;28;20040;-74
2022/03/24 05:41:21;;;;;;;34.38;19.95;;;1.90;99.90;;;;;;5054598;28;20120;-75
2022/03/24 05:44:06;;;;;;;35.03;20.17;;;1.90;99.90;;;;;;5049980;28;20100;-75
2022/03/24 05:46:44;;;;;;;36.03;19.80;;;1.90;99.90;;;;;;5034490;28;20044;-73
2022/03/24 05:49:14;;;;;;;38.53;19.85;;;1.90;99.90;;;;;;5034123;28;20056;-75
2022/03/24 05:51:42;;;;;;;;;;;1.90;99.90;;;;;;5033886;28;20036;-73
2022/03/24 05:54:09;;;;;;;40.50;19.70;;;2.00;99.90;;;;;;5034315;28;20255;-75
2022/03/24 05:56:35;;;;;;;38.67;20.50;;;2.00;99.90;;;;;;5033547;28;20475;-71
2022/03/24 05:59:01;;;;;;;39.92;20.75;;;2.10;99.90;;;;;;5034141;28;20045;-75
2022/03/24 06:01:26;;;;;;;33.55;19.48;;;2.20;99.90;;;;;;5033830;28;20033;-76
2022/03/24 06:03:52;;;;;;;34.22;19.13;;;2.20;99.90;;;;;;5033001;28;20071;-76
2022/03/24 06:06:20;;;;;;;38.83;18.75;;;2.40;99.90;;;;;;5034162;28;20083;-75
2022/03/24 06:08:52;;;;;;;34.10;19.65;;;2.50;99.90;;;;;;5033307;28;20040;-75
2022/03/24 06:11:19;;;;;;;31.55;19.13;;;2.60;99.90;;;;;;5034123;28;20367;-76
2022/03/24 06:13:46;;;;;;;34.08;18.63;;;2.70;99.90;;;;;;5033073;28;20025;-75
2022/03/24 06:16:13;;;;;;;33.20;18.10;;;2.80;99.90;;;;;;5033927;28;20033;-75
2022/03/24 06:18:39;;;;;;;34.75;19.33;;;2.80;99.90;;;;;;5033029;28;20065;-73
2022/03/24 06:21:06;;;;;;;35.63;19.67;;;3.00;99.90;;;;;;5033750;28;20092;-74
2022/03/24 06:23:32;;;;;;;35.40;19.13;;;3.00;99.90;;;;;;5033990;28;20105;-74
2022/03/24 06:25:57;;;;;;;33.70;18.67;;;3.10;99.90;;;;;;5034197;28;20053;-80
2022/03/24 06:28:23;;;;;;;33.65;18.70;;;3.20;99.90;;;;;;5038644;28;20435;-73
2022/03/24 06:30:50;;;;;;;35.58;19.48;;;3.30;99.90;;;;;;5033864;28;20130;-75
2022/03/24 06:33:16;;;;;;;34.70;20.38;;;3.40;99.90;;;;;;5031838;28;20031;-76
2022/03/24 06:35:46;;;;;;;35.65;19.77;;;3.50;99.90;;;;;;5032054;28;20040;-77
2022/03/24 06:38:13;;;;;;;37.53;19.73;;;3.60;99.90;;;;;;5033909;28;20040;-78
2022/03/24 06:40:40;;;;;;;40.47;20.08;;;3.70;99.90;;;;;;5033428;28;20387;-77
2022/03/24 06:43:07;;;;;;;34.63;20.58;;;3.80;99.90;;;;;;5033784;28;20029;-84
2022/03/24 06:45:34;;;;;;;34.20;20.27;;;3.80;99.90;;;;;;5049524;28;20029;-77
2022/03/24 06:48:00;;;;;;;34.50;20.38;;;3.90;99.90;;;;;;5052888;28;20029;-79
2022/03/24 06:50:26;;;;;;;34.03;20.80;;;4.00;99.90;;;;;;5053368;28;20053;-79
2022/03/24 06:52:52;;;;;;;35.60;20.38;;;4.10;99.90;;;;;;5052649;28;20026;-78
2022/03/24 06:55:19;;;;;;;32.42;19.70;;;4.20;99.90;;;;;;5052958;28;20082;-76
2022/03/24 06:57:45;;;;;;;33.53;19.88;;;4.20;99.90;;;;;;5052191;28;20112;-75
2022/03/24 07:00:13;;;;;;;31.30;20.08;;;4.30;99.90;;;;;;5051519;28;20496;-75
2022/03/24 07:02:44;;;;;;;32.30;19.80;;;4.40;99.90;;;;;;5051747;28;20060;-84
2022/03/24 07:05:11;;;;;;;37.28;21.38;;;4.60;99.90;;;;;;5054814;28;20025;-82
2022/03/24 07:07:37;;;;;;;36.67;21.92;;;4.70;99.90;;;;;;5038714;28;20486;-75
2022/03/24 07:10:03;;;;;;;40.38;21.33;;;4.80;99.90;;;;;;5032543;28;20029;-83
2022/03/24 07:12:29;;;;;;;34.65;21.05;;;5.00;99.90;;;;;;5047340;28;20089;-84
2022/03/24 07:14:54;;;;;;;37.45;21.58;;;5.20;99.90;;;;;;5046706;28;20132;-82
2022/03/24 07:17:21;;;;;;;33.35;20.83;;;5.30;99.90;;;;;;5054054;28;20040;-86
2022/03/24 07:19:47;;;;;;;31.02;20.13;;;5.30;99.90;;;;;;5049120;28;20041;-85
2022/03/24 07:22:13;;;;;;;36.00;19.73;;;5.30;99.90;;;;;;5033270;28;20032;-82
2022/03/24 07:24:39;;;;;;;33.45;20.13;;;5.50;99.90;;;;;;5036163;28;20101;-73
2022/03/24 07:27:06;;;;;;;34.35;21.83;;;5.60;99.90;;;;;;5032604;28;20072;-79
2022/03/24 07:29:31;;;;;;;33.70;20.85;;;5.90;99.90;;;;;;5034843;28;20033;-79
2022/03/24 07:31:59;;;;;;;32.60;19.67;;;6.00;99.90;;;;;;5048312;28;20044;-80
2022/03/24 07:34:25;;;;;;;36.58;19.77;;;6.10;99.90;;;;;;5052659;28;20024;-77
2022/03/24 07:36:51;;;;;;;32.10;19.33;;;6.30;99.90;;;;;;5051594;28;20111;-78
2022/03/24 07:39:17;;;;;;;33.33;20.40;;;6.30;99.90;;;;;;5047186;28;20574;-79
2022/03/24 07:41:43;;;;;;;30.50;19.45;;;6.40;99.90;;;;;;5031409;28;20025;-79
2022/03/24 07:44:08;;;;;;;31.30;19.30;;;6.50;99.90;;;;;;5037463;28;20033;-79
2022/03/24 07:46:34;;;;;;;35.22;20.80;;;6.30;99.90;;;;;;5040625;28;20382;-79
2022/03/24 07:49:00;;;;;;;36.22;20.45;;;6.80;99.90;;;;;;5030266;28;20099;-77
2022/03/24 07:51:31;;;;;;;30.65;20.23;;;7.00;99.90;;;;;;5044558;28;20536;-80
2022/03/24 07:54:00;;;;;;;33.72;18.80;;;7.10;99.90;;;;;;5051641;28;20428;-81
2022/03/24 07:56:27;;;;;;;34.67;19.05;;;7.20;99.90;;;;;;5052921;28;20029;-80
2022/03/24 07:58:53;;;;;;;29.25;19.08;;;;;;;;;;5048127;28;20041;-80
2022/03/24 08:01:26;;;;;;;35.53;20.67;;;;;;;;;;5041580;28;20010;-78
2022/03/24 08:03:53;;;;;;;41.13;19.88;;;;;;;;;;5030215;28;20029;-78
2022/03/24 08:06:20;;;;;;;31.88;19.00;;;;;;;;;;5033234;28;20029;-78
2022/03/24 08:08:46;;;;;;;36.92;20.10;;;;;;;;;;5036477;28;20478;-78
2022/03/24 08:11:11;;;;;;;30.20;19.38;;;7.80;92.60;;;;;;5039900;28;20029;-79
2022/03/24 08:13:37;;;;;;;33.22;19.70;;;7.80;92.50;;;;;;5033073;28;20086;-79
2022/03/24 08:16:04;;;;;;;29.60;19.52;;;7.90;92.20;;;;;;5031224;28;20037;-79
2022/03/24 08:18:30;;;;;;;34.42;18.88;;;8.00;92.00;;;;;;5033150;28;20037;-79
2022/03/24 08:20:56;;;;;;;32.15;19.02;;;8.10;92.00;;;;;;5031702;28;20036;-81
2022/03/24 08:23:22;;;;;;;34.88;20.27;;;8.10;91.70;;;;;;5044116;28;20106;-80
2022/03/24 08:25:47;;;;;;;37.28;19.80;;;8.20;91.30;;;;;;5051305;28;20040;-79
2022/03/24 08:28:13;;;;;;;31.35;20.15;;;8.40;90.70;;;;;;5052113;28;20043;-80
2022/03/24 08:30:41;;;;;;;31.65;19.77;;;8.50;90.20;;;;;;5052830;28;20476;-77
2022/03/24 08:33:09;;;;;;;36.60;20.45;;;8.70;89.00;;;;;;5050296;28;20036;-81
2022/03/24 08:35:35;;;;;;;33.33;20.38;;;8.80;88.70;;;;;;5052275;28;20039;-85
2022/03/24 08:38:00;;;;;;;30.90;19.50;;;9.00;88.50;;;;;;5050880;28;20096;-79
2022/03/24 08:40:26;;;;;;;33.15;19.45;;;9.10;86.50;;;;;;5051945;28;20116;-76
2022/03/24 08:42:52;;;;;;;30.88;20.00;;;9.20;84.60;;;;;;5038494;28;20035;-79
2022/03/24 08:45:18;;;;;;;32.50;19.70;;;9.30;85.20;;;;;;5037144;28;20167;-80
2022/03/24 08:47:44;;;;;;;31.70;20.15;;;9.40;83.80;;;;;;5031252;28;20029;-76
2022/03/24 08:50:12;;;;;;;30.25;20.90;;;9.50;82.90;;;;;;5031987;28;20065;-77
2022/03/24 08:52:38;;;;;;;36.33;20.98;;;9.80;80.60;;;;;;5035018;28;20631;-78
2022/03/24 08:55:06;;;;;;;35.40;20.85;;;9.90;81.10;;;;;;5051052;28;20026;-78
2022/03/24 08:57:32;;;;;;;37.13;21.45;;;10.10;78.70;;;;;;5051769;28;20061;-79
2022/03/24 09:00:02;;;;;;;33.17;20.52;;;10.20;76.70;;;;;;5048979;28;20465;-78
2022/03/24 09:02:30;;;;;;;37.30;21.45;;;10.30;75.40;;;;;;5041942;28;20033;-78
2022/03/24 09:04:56;;;;;;;37.53;21.17;;;10.40;74.60;;;;;;5031611;28;20030;-78
2022/03/24 09:07:21;;;;;;;40.63;21.38;;;10.60;73.40;;;;;;5032598;28;20037;-79
2022/03/24 09:09:47;;;;;;;34.83;21.23;;;10.70;72.80;;;;;;5034855;28;20041;-78
2022/03/24 09:12:13;;;;;;;34.42;21.08;;;10.80;71.40;;;;;;5055616;28;20056;-79
2022/03/24 09:14:40;;;;;;;34.80;21.35;;;11.00;76.00;;;;;;5059814;28;20010;-77
2022/03/24 09:17:06;;;;;;;38.03;21.77;;;11.00;82.20;;;;;;5043354;28;20033;-78
2022/03/24 09:19:33;;;;;;;40.72;22.23;;;11.20;70.20;;;;;;5044965;28;20378;-78
2022/03/24 09:21:59;;;;;;;38.92;22.85;;;11.40;68.30;;;;;;5039227;28;20061;-78
2022/03/24 09:24:26;;;;;;;40.47;22.90;;;11.60;67.40;;;;;;5037624;28;20025;-78
2022/03/24 09:26:53;;;;;;;37.55;21.92;;;11.60;66.10;;;;;;5034646;28;20028;-78
2022/03/24 09:29:18;;;;;;;37.20;22.25;;;11.70;65.20;;;;;;5035257;28;20033;-78
2022/03/24 09:31:44;;;;;;;35.30;21.85;;;11.80;64.50;;;;;;5036329;28;20111;-74
2022/03/24 09:34:10;;;;;;;34.53;23.33;;;11.90;64.40;;;;;;5035512;28;20057;-77
2022/03/24 09:36:36;;;;;;;41.05;22.88;;;12.20;87.20;;;;;;5035343;28;20026;-78
2022/03/24 09:39:04;;;;;;;37.95;22.75;;;12.30;88.30;;;;;;5034562;28;20041;-78
2022/03/24 09:41:31;;;;;;;41.55;23.80;;;12.50;87.10;;;;;;5035574;28;20366;-79
2022/03/24 09:43:58;;;;;;;40.75;22.33;;;12.90;90.40;;;;;;5037751;28;20025;-77
2022/03/24 09:46:27;;;;;;;33.05;21.48;;;12.90;89.20;;;;;;5054962;28;20104;-78
2022/03/24 09:48:53;;;;;;;38.00;22.83;;;13.70;85.30;;;;;;5053853;28;20055;-77
2022/03/24 09:51:20;;;;;;;38.80;24.05;;;13.10;79.20;;;;;;5054973;28;20029;-78
2022/03/24 09:53:46;;;;;;;37.83;23.17;;;13.20;81.90;;;;;;5053841;28;20040;-76
2022/03/24 09:56:12;;;;;;;42.53;24.45;;;13.20;60.80;;;;;;5055307;28;20360;-79
2022/03/24 09:58:37;;;;;;;34.58;21.80;;;13.40;59.30;;;;;;5054987;28;20025;-78
2022/03/24 10:01:03;;;;;;;37.92;23.35;;;13.50;58.70;;;;;;5053761;28;20025;-79
2022/03/24 10:03:29;;;;;;;39.50;24.25;;;13.60;58.60;;;;;;5054499;28;20371;-79
2022/03/24 10:06:00;;;;;;;36.80;23.48;;;13.80;57.00;;;;;;5053744;28;20112;-80
2022/03/24 10:08:28;;;;;;;40.35;23.67;;;13.80;57.30;;;;;;5056096;28;20083;-79
2022/03/24 10:11:02;;;;;;;37.70;24.63;;;14.10;53.30;;;;;;5052820;28;20386;-78
2022/03/24 10:13:43;;;;;;;39.17;23.38;;;14.20;55.20;;;;;;5055992;28;20370;-79
2022/03/24 10:16:12;;;;;;;38.08;24.85;;;14.30;52.20;;;;;;5056570;28;20037;-77
2022/03/24 10:18:55;;;;;;;39.13;25.52;;;14.50;51.60;;;;;;5054916;28;20132;-78
2022/03/24 10:21:23;;;;;;;43.30;23.13;;;14.60;51.40;;;;;;5053276;28;20106;-77
2022/03/24 10:23:48;;;;;;;44.45;24.65;;;14.80;49.00;;;;;;5053669;28;20036;-80
2022/03/24 10:26:14;;;;;;;35.58;22.63;;;14.80;48.70;;;;;;5053722;28;20355;-78
2022/03/24 10:28:57;;;;;;;31.95;21.70;;;15.30;59.00;;;;;;5053599;28;20076;-78
2022/03/24 10:31:34;;;;;;;32.55;22.60;;;15.00;47.10;;;;;;5053641;28;20447;-78
2022/03/24 10:33:59;;;;;;;34.45;21.50;;;15.20;45.90;;;;;;5053614;28;20374;-78
2022/03/24 10:36:26;;;;;;;30.83;20.17;;;15.30;45.80;;;;;;5052607;28;20024;-78
2022/03/24 10:39:00;;;;;;;37.40;20.65;;;15.40;44.40;;;;;;5053066;28;20043;-78
2022/03/24 10:41:28;;;;;;;28.60;20.80;;;15.60;44.90;;;;;;5053624;28;20021;-79
2022/03/24 10:43:59;;;;;;;38.30;20.05;;;15.70;44.40;;;;;;5050091;28;20021;-78
2022/03/24 10:46:25;;;;;;;28.55;20.42;;;15.90;42.90;;;;;;5033414;28;20414;-79
2022/03/24 10:48:52;;;;;;;34.72;20.02;;;16.00;42.00;;;;;;5032675;28;20119;-77
2022/03/24 10:51:22;;;;;;;34.72;21.77;;;16.20;73.30;;;;;;5033562;28;20105;-79
2022/03/24 10:53:48;;;;;;;37.28;20.02;;;16.30;71.70;;;;;;5033071;28;20060;-77
2022/03/24 10:56:25;;;;;;;43.55;22.13;;;16.30;42.70;;;;;;5033792;28;20131;-78
2022/03/24 10:58:57;;;;;;;48.70;21.35;;;16.40;42.60;;;;;;5032391;28;20038;-79
2022/03/24 11:01:27;;;;;;;38.65;22.02;;;16.60;42.90;;;;;;5033229;28;20026;-79
2022/03/24 11:03:53;;;;;;;30.23;22.20;;;16.70;43.00;;;;;;5032451;28;20030;-78
2022/03/24 11:06:22;;;;;;;35.15;22.95;;;16.90;42.50;;;;;;5033054;28;20040;-79
2022/03/24 11:08:59;;;;;;;45.55;22.63;;;17.10;42.90;;;;;;5032477;28;20112;-75
2022/03/24 11:11:26;;;;;;;31.73;21.98;;;17.20;43.20;;;;;;5033240;28;20517;-79
2022/03/24 11:14:00;;;;;;;43.25;21.83;;;17.20;42.10;;;;;;5032366;28;20025;-78
2022/03/24 11:16:31;;;;;;;33.13;21.23;;;17.30;42.30;;;;;;5032650;28;20474;-78
2022/03/24 11:18:58;;;;;;;31.13;20.65;;;17.50;41.50;;;;;;5032290;28;20100;-79
2022/03/24 11:21:42;;;;;;;29.13;21.02;;;17.60;41.10;;;;;;5033146;28;20438;-76
2022/03/24 11:24:07;;;;;;;33.28;21.40;;;17.90;39.80;;;;;;5031986;28;20029;-78
2022/03/24 11:26:35;;;;;;;26.23;19.95;;;18.00;39.80;;;;;;5032851;28;20379;-78
2022/03/24 11:29:02;;;;;;;29.38;20.13;;;18.00;39.30;;;;;;5032002;28;20435;-79
2022/03/24 11:31:34;;;;;;;27.50;19.45;;;18.20;39.80;;;;;;5032434;28;20021;-78
2022/03/24 11:34:04;;;;;;;23.60;18.55;;;18.40;38.40;;;;;;5032225;28;20497;-76
2022/03/24 11:36:31;;;;;;;26.33;19.27;;;18.70;37.80;;;;;;5032784;28;20551;-79
2022/03/24 11:39:00;;;;;;;23.05;18.48;;;19.00;48.00;;;;;;5031347;28;20041;-79
2022/03/24 11:41:36;;;;;;;24.65;19.33;;;19.30;52.30;;;;;;5032518;28;20364;-79
2022/03/24 11:44:25;;;;;;;22.60;16.98;;;19.40;36.90;;;;;;5035839;28;20025;-78
2022/03/24 11:47:02;;;;;;;21.65;16.25;;;19.60;35.70;;;;;;5039287;28;20029;-76
2022/03/24 11:49:31;;;;;;;23.92;17.05;;;19.90;34.30;;;;;;5052396;28;20139;-78
2022/03/24 11:51:56;;;;;;;20.00;15.93;;;20.20;34.50;;;;;;5051659;28;20025;-78
2022/03/24 11:54:27;;;;;;;17.73;15.57;;;20.40;34.20;;;;;;5052888;28;20078;-79
2022/03/24 11:57:21;;;;;;;24.55;18.42;;;20.70;34.00;;;;;;5050190;28;20462;-78
2022/03/24 11:59:47;;;;;;;25.95;17.30;;;20.80;33.60;;;;;;5051752;28;20029;-74
2022/03/24 12:02:15;;;;;;;22.95;16.60;;;20.80;34.30;;;;;;5051597;28;20033;-79
2022/03/24 12:04:56;;;;;;;23.42;18.40;;;20.90;33.50;;;;;;5052552;28;20025;-79
2022/03/24 12:07:22;;;;;;;23.60;16.10;;;21.10;32.90;;;;;;5053150;28;20031;-79
2022/03/24 12:09:57;;;;;;;21.10;15.38;;;21.10;31.90;;;;;;5052844;28;20482;-74
2022/03/24 12:12:22;;;;;;;19.00;15.57;;;21.10;32.10;;;;;;5053271;28;20067;-79
2022/03/24 12:14:50;;;;;;;21.23;16.25;;;21.20;33.20;;;;;;5052657;28;20052;-74
2022/03/24 12:17:31;;;;;;;23.67;16.23;;;21.30;34.00;;;;;;5051841;28;20028;-79
2022/03/24 12:20:02;;;;;;;20.48;16.70;;;21.60;32.30;;;;;;5051975;28;20047;-79
2022/03/24 12:22:32;;;;;;;26.65;16.38;;;21.50;32.80;;;;;;5051873;28;20122;-79
2022/03/24 12:25:01;;;;;;;22.27;15.43;;;21.70;32.60;;;;;;5051168;28;20111;-79
2022/03/24 12:27:32;;;;;;;18.02;14.65;;;21.80;32.40;;;;;;5050336;28;20116;-79
2022/03/24 12:30:18;;;;;;;18.77;14.85;;;21.80;31.70;;;;;;5050998;28;20028;-78
2022/03/24 12:33:12;;;;;;;24.98;16.88;;;21.80;31.10;;;;;;5052063;28;20025;-78
2022/03/24 12:35:55;;;;;;;23.63;15.68;;;21.80;31.60;;;;;;5051614;28;20036;-79
2022/03/24 12:38:40;;;;;;;23.50;15.65;;;21.90;31.80;;;;;;5051366;28;20539;-79
2022/03/24 12:41:06;;;;;;;29.25;15.15;;;;;;;;;;5050987;28;20480;-79
2022/03/24 12:43:39;;;;;;;21.00;15.32;;;22.50;30.70;;;;;;5051147;28;20462;-76
2022/03/24 12:46:28;;;;;;;19.70;13.52;;;22.70;31.10;;;;;;5034493;28;20021;-78
2022/03/24 12:48:56;;;;;;;22.08;14.40;;;23.20;29.90;;;;;;5034862;28;20049;-76
2022/03/24 12:51:28;;;;;;;14.77;12.38;;;23.20;30.80;;;;;;5035643;28;20108;-77
2022/03/24 12:53:58;;;;;;;14.20;11.80;;;23.20;29.60;;;;;;5034803;28;20029;-76